createdAt,value
2023-03-31T00:00:48.775Z,99814.03
2023-03-31T00:03:21.806Z,99817.81
2023-03-31T00:05:48.890Z,99811.84
2023-03-31T00:08:15.516Z,99807.03
2023-03-31T00:10:46.630Z,99803.78
2023-03-31T00:13:14.218Z,99802.44
2023-03-31T00:15:41.223Z,99790.56
2023-03-31T00:18:07.988Z,99788.69
2023-03-31T00:20:37.871Z,99778.97
2023-03-31T00:23:10.818Z,99790.84
2023-03-31T00:25:41.682Z,99786.00
2023-03-31T00:28:08.640Z,99769.56
2023-03-31T00:30:35.410Z,99765.78
2023-03-31T00:33:02.556Z,99760.38
2023-03-31T00:35:29.388Z,99756.34
2023-03-31T00:37:57.807Z,99756.34
2023-03-31T00:40:24.629Z,99750.41
2023-03-31T00:42:51.268Z,99739.88
2023-03-31T00:45:23.646Z,99741.25
2023-03-31T00:48:14.866Z,99739.09
2023-03-31T00:50:50.404Z,99736.13
2023-03-31T00:53:22.594Z,99723.72
2023-03-31T00:55:53.008Z,99714.28
2023-03-31T00:58:21.723Z,99710.78
2023-03-31T01:00:51.309Z,99713.50
2023-03-31T01:03:19.327Z,99712.94
2023-03-31T01:05:51.161Z,99705.13
2023-03-31T01:08:24.262Z,99700.25
2023-03-31T01:10:54.665Z,99700.00
2023-03-31T01:13:22.352Z,99695.69
2023-03-31T01:15:49.401Z,99691.63
2023-03-31T01:18:21.273Z,99690.28
2023-03-31T01:21:19.149Z,99675.97
2023-03-31T01:24:07.186Z,99667.88
2023-03-31T01:27:01.810Z,99666.81
2023-03-31T01:29:49.740Z,99677.28
2023-03-31T01:33:03.771Z,99664.38
2023-03-31T01:36:09.502Z,99669.25
2023-03-31T01:39:08.781Z,99660.84
2023-03-31T01:41:47.835Z,99663.28
2023-03-31T01:44:28.053Z,99651.72
2023-03-31T01:47:11.141Z,99635.56
2023-03-31T01:49:40.806Z,99636.59
2023-03-31T01:52:22.687Z,99628.50
2023-03-31T01:54:55.296Z,99623.72
2023-03-31T01:57:29.644Z,99618.06
2023-03-31T02:00:04.681Z,99615.34
2023-03-31T02:02:57.733Z,99617.53
2023-03-31T02:05:30.139Z,99609.22
2023-03-31T02:08:02.718Z,99609.22
2023-03-31T02:10:31.839Z,99613.81
2023-03-31T02:13:01.498Z,99608.13
2023-03-31T02:15:33.446Z,99611.91
2023-03-31T02:18:06.159Z,99597.09
2023-03-31T02:20:33.783Z,99603.81
2023-03-31T02:23:00.798Z,99597.91
2023-03-31T02:25:38.626Z,99579.88
2023-03-31T02:28:16.262Z,99574.19
2023-03-31T02:30:52.972Z,99575.28
2023-03-31T02:33:19.734Z,99560.16
2023-03-31T02:35:46.576Z,99559.34
2023-03-31T02:38:14.024Z,99561.78
2023-03-31T02:40:40.829Z,99555.59
2023-03-31T02:43:07.600Z,99548.03
2023-03-31T02:45:41.826Z,99539.97
2023-03-31T02:48:22.455Z,99532.97
2023-03-31T02:51:22.956Z,99530.81
2023-03-31T02:53:58.666Z,99518.41
2023-03-31T02:57:07.121Z,99515.97
2023-03-31T02:59:45.865Z,99500.84
2023-03-31T03:02:15.730Z,99499.75
2023-03-31T03:04:58.461Z,99494.38
2023-03-31T03:07:29.112Z,99479.03
2023-03-31T03:10:05.099Z,99468.50
2023-03-31T03:12:50.711Z,99472.28
2023-03-31T03:15:24.682Z,99472.28
2023-03-31T03:17:52.006Z,99470.72
2023-03-31T03:20:20.711Z,99460.50
2023-03-31T03:22:47.525Z,99457.00
2023-03-31T03:25:17.218Z,99439.50
2023-03-31T03:27:44.332Z,99427.16
2023-03-31T03:30:12.666Z,99420.06
2023-03-31T03:32:39.411Z,99419.59
2023-03-31T03:35:07.129Z,99402.03
2023-03-31T03:37:35.337Z,99396.13
2023-03-31T03:40:02.044Z,99378.59
2023-03-31T03:42:29.895Z,99369.50
2023-03-31T03:44:56.588Z,99359.53
2023-03-31T03:47:24.068Z,99358.59
2023-03-31T03:49:51.527Z,99336.75
2023-03-31T03:52:18.179Z,99336.47
2023-03-31T03:54:45.054Z,99321.91
2023-03-31T03:57:11.840Z,99323.75
2023-03-31T03:59:38.520Z,99319.69
2023-03-31T04:02:06.420Z,99338.16
2023-03-31T04:04:33.185Z,99356.19
2023-03-31T04:06:59.878Z,99350.31
2023-03-31T04:09:26.527Z,99352.63
2023-03-31T04:11:53.255Z,99336.47
2023-03-31T04:14:19.877Z,99342.59
2023-03-31T04:16:46.930Z,99355.88
2023-03-31T04:19:17.511Z,99346.97
2023-03-31T04:21:50.767Z,99334.56
2023-03-31T04:24:21.826Z,99313.69
2023-03-31T04:26:50.973Z,99315.94
2023-03-31T04:29:19.801Z,99308.19
2023-03-31T04:31:46.661Z,99298.91
2023-03-31T04:34:15.385Z,99288.34
2023-03-31T04:36:48.001Z,99292.09
2023-03-31T04:39:26.855Z,99297.28
2023-03-31T04:41:54.000Z,99296.78
2023-03-31T04:44:20.928Z,99301.34
2023-03-31T04:46:47.815Z,99294.06
2023-03-31T04:49:14.558Z,99295.13
2023-03-31T04:51:41.364Z,99285.94
2023-03-31T04:54:08.164Z,99284.91
2023-03-31T04:56:34.905Z,99279.28
2023-03-31T04:59:03.717Z,99283.06
2023-03-31T05:01:36.317Z,99288.50
2023-03-31T05:04:06.737Z,99294.16
2023-03-31T05:06:33.777Z,99285.28
2023-03-31T05:09:00.586Z,99290.13
2023-03-31T05:11:27.474Z,99292.06
2023-03-31T05:13:54.464Z,99276.72
2023-03-31T05:16:21.734Z,99277.28
2023-03-31T05:18:48.464Z,99274.13
2023-03-31T05:21:17.662Z,99273.56
2023-03-31T05:23:44.754Z,99272.97
2023-03-31T05:26:11.954Z,99261.41
2023-03-31T05:28:38.787Z,99257.16
2023-03-31T05:31:07.303Z,99242.13
2023-03-31T05:33:35.024Z,99236.16
2023-03-31T05:36:01.667Z,99220.81
2023-03-31T05:38:31.797Z,99220.09
2023-03-31T05:40:58.506Z,99223.81
2023-03-31T05:43:25.414Z,99222.72
2023-03-31T05:45:52.184Z,99222.97
2023-03-31T05:48:19.530Z,99209.81
2023-03-31T05:50:46.459Z,99214.06
2023-03-31T05:53:13.942Z,99210.84
2023-03-31T05:55:40.745Z,99201.72
2023-03-31T05:58:08.550Z,99190.91
2023-03-31T06:00:36.266Z,99197.91
2023-03-31T06:03:03.074Z,99176.94
2023-03-31T06:05:31.323Z,99152.41
2023-03-31T06:07:58.000Z,99154.31
2023-03-31T06:10:24.665Z,99145.31
2023-03-31T06:12:51.637Z,99140.81
2023-03-31T06:15:18.272Z,99128.59
2023-03-31T06:17:45.002Z,99120.47
2023-03-31T06:20:24.551Z,99126.72
2023-03-31T06:22:54.298Z,99106.03
2023-03-31T06:25:21.619Z,99096.81
2023-03-31T06:27:48.430Z,99101.94
2023-03-31T06:30:15.198Z,99077.75
2023-03-31T06:32:41.871Z,99064.59
2023-03-31T06:35:09.070Z,99082.09
2023-03-31T06:37:35.850Z,99093.16
2023-03-31T06:40:02.914Z,99086.66
2023-03-31T06:42:29.852Z,99084.81
2023-03-31T06:44:56.541Z,99094.81
2023-03-31T06:47:23.273Z,99093.47
2023-03-31T06:49:49.984Z,99104.78
2023-03-31T06:52:16.712Z,99091.50
2023-03-31T06:54:43.359Z,99095.28
2023-03-31T06:57:10.243Z,99089.38
2023-03-31T06:59:36.979Z,99089.72
2023-03-31T07:02:04.006Z,99087.19
2023-03-31T07:04:30.762Z,99083.91
2023-03-31T07:06:58.839Z,99097.19
2023-03-31T07:09:25.632Z,99095.38
2023-03-31T07:11:52.429Z,99094.00
2023-03-31T07:14:19.066Z,99087.63
2023-03-31T07:16:46.002Z,99088.72
2023-03-31T07:19:13.451Z,99086.22
2023-03-31T07:21:40.092Z,99095.09
2023-03-31T07:24:06.973Z,99089.38
2023-03-31T07:26:33.753Z,99092.69
2023-03-31T07:29:00.404Z,99085.22
2023-03-31T07:31:27.141Z,99081.03
2023-03-31T07:33:53.962Z,99076.56
2023-03-31T07:36:21.024Z,99075.22
2023-03-31T07:38:49.550Z,99068.88
2023-03-31T07:41:19.092Z,99068.66
2023-03-31T07:43:46.649Z,99069.13
2023-03-31T07:46:21.909Z,99077.13
2023-03-31T07:48:49.652Z,99093.69
2023-03-31T07:51:19.115Z,99089.38
2023-03-31T07:53:46.526Z,99092.66
2023-03-31T07:56:13.388Z,99088.34
2023-03-31T07:58:40.412Z,99091.81
2023-03-31T08:01:08.267Z,99082.19
2023-03-31T08:03:35.234Z,99089.78
2023-03-31T08:06:01.961Z,99089.03
2023-03-31T08:08:28.758Z,99092.53
2023-03-31T08:10:55.507Z,99089.09
2023-03-31T08:13:26.292Z,99081.63
2023-03-31T08:15:53.037Z,99089.09
2023-03-31T08:18:20.039Z,99092.59
2023-03-31T08:20:49.751Z,99094.75
2023-03-31T08:23:16.357Z,99087.69
2023-03-31T08:25:43.062Z,99098.19
2023-03-31T08:28:14.027Z,99107.53
2023-03-31T08:30:41.672Z,99104.25
2023-03-31T08:33:08.859Z,99092.47
2023-03-31T08:35:36.122Z,99095.16
2023-03-31T08:38:03.239Z,99086.53
2023-03-31T08:40:31.550Z,99079.91
2023-03-31T08:43:28.068Z,99077.44
2023-03-31T08:45:56.091Z,99079.69
2023-03-31T08:48:30.949Z,99092.56
2023-03-31T08:51:03.327Z,99090.16
2023-03-31T08:53:35.275Z,99085.56
2023-03-31T08:56:06.287Z,99075.25
2023-03-31T08:58:51.760Z,99065.84
2023-03-31T09:01:55.687Z,99061.28
2023-03-31T09:04:32.517Z,99063.16
2023-03-31T09:07:15.572Z,99056.97
2023-03-31T09:10:10.365Z,99073.13
2023-03-31T09:12:59.101Z,99100.00
2023-03-31T09:15:41.370Z,99101.38
2023-03-31T09:18:21.960Z,99100.34
2023-03-31T09:20:53.398Z,99082.59
2023-03-31T09:23:32.256Z,99081.13
2023-03-31T09:26:01.652Z,99081.41
2023-03-31T09:28:39.097Z,99066.28
2023-03-31T09:31:15.951Z,99072.94
2023-03-31T09:33:45.917Z,99088.19
2023-03-31T09:36:24.366Z,99075.47
2023-03-31T09:38:51.694Z,99064.03
2023-03-31T09:41:19.320Z,99061.91
2023-03-31T09:43:47.763Z,99060.75
2023-03-31T09:46:33.229Z,99054.84
2023-03-31T09:49:28.578Z,99050.28
2023-03-31T09:52:04.103Z,99029.47
2023-03-31T09:54:51.462Z,99045.31
2023-03-31T09:57:29.932Z,99033.84
2023-03-31T10:00:16.591Z,99019.94
2023-03-31T10:02:45.808Z,99008.47
2023-03-31T10:05:37.030Z,98998.13
2023-03-31T10:08:25.711Z,99005.66
2023-03-31T10:11:09.787Z,99026.69
2023-03-31T10:13:46.423Z,99043.22
2023-03-31T10:16:28.482Z,99056.47
2023-03-31T10:18:57.366Z,99039.72
2023-03-31T10:21:35.073Z,99019.38
2023-03-31T10:24:08.137Z,99011.66
2023-03-31T10:26:35.393Z,98990.94
2023-03-31T10:29:02.645Z,98997.09
2023-03-31T10:31:37.255Z,98975.41
2023-03-31T10:34:12.865Z,98982.25
2023-03-31T10:36:47.533Z,98993.63
2023-03-31T10:39:17.170Z,98980.44
2023-03-31T10:41:50.594Z,98969.91
2023-03-31T10:44:38.147Z,98968.31
2023-03-31T10:47:33.211Z,98965.78
2023-03-31T10:50:04.133Z,98972.63
2023-03-31T10:52:45.374Z,98977.06
2023-03-31T10:55:24.777Z,98991.50
2023-03-31T10:58:58.154Z,99009.34
2023-03-31T11:02:01.018Z,98993.75
2023-03-31T11:04:44.258Z,99001.19
2023-03-31T11:07:45.551Z,99006.16
2023-03-31T11:10:27.061Z,99001.34
2023-03-31T11:13:05.079Z,99007.72
2023-03-31T11:15:37.654Z,99017.53
2023-03-31T11:18:32.454Z,99006.44
2023-03-31T11:21:23.284Z,98977.50
2023-03-31T11:24:07.105Z,98957.53
2023-03-31T11:27:04.205Z,98983.38
2023-03-31T11:29:38.187Z,98972.38
2023-03-31T11:32:04.880Z,98974.59
2023-03-31T11:35:04.273Z,98956.81
2023-03-31T11:37:37.020Z,98971.75
2023-03-31T11:40:32.161Z,98967.06
2023-03-31T11:43:27.577Z,98969.97
2023-03-31T11:46:01.756Z,98966.31
2023-03-31T11:48:40.364Z,98962.88
2023-03-31T11:51:14.278Z,98952.81
2023-03-31T11:53:45.646Z,98955.97
2023-03-31T11:56:13.025Z,98949.84
2023-03-31T11:58:51.404Z,98953.56
2023-03-31T12:01:27.018Z,98969.34
2023-03-31T12:04:11.556Z,98990.31
2023-03-31T12:06:42.623Z,98993.53
2023-03-31T12:09:30.552Z,98977.06
2023-03-31T12:12:28.912Z,98977.31
2023-03-31T12:15:08.379Z,98977.94
2023-03-31T12:17:41.708Z,98965.28
2023-03-31T12:20:41.232Z,98953.22
2023-03-31T12:23:15.391Z,98944.63
2023-03-31T12:26:08.427Z,98929.97
2023-03-31T12:28:38.924Z,98917.09
2023-03-31T12:31:08.424Z,98907.78
2023-03-31T12:33:43.308Z,98903.59
2023-03-31T12:36:18.096Z,98909.81
2023-03-31T12:39:23.116Z,98917.59
2023-03-31T12:42:27.754Z,98922.78
2023-03-31T12:45:12.152Z,98921.59
2023-03-31T12:47:59.719Z,98917.50
2023-03-31T12:51:10.064Z,98913.47
2023-03-31T12:53:36.729Z,98912.59
2023-03-31T12:56:03.792Z,98909.22
2023-03-31T12:58:33.128Z,98907.41
2023-03-31T13:01:21.518Z,98922.34
2023-03-31T13:04:26.772Z,98911.06
2023-03-31T13:06:57.251Z,98911.06
2023-03-31T13:09:33.172Z,98915.34
2023-03-31T13:12:08.152Z,98906.03
2023-03-31T13:14:40.205Z,98905.72
2023-03-31T13:17:36.166Z,98907.03
2023-03-31T13:20:26.334Z,98910.63
2023-03-31T13:23:02.496Z,98915.41
2023-03-31T13:25:29.149Z,98907.72
2023-03-31T13:27:57.753Z,98903.91
2023-03-31T13:30:36.842Z,98899.38
2023-03-31T13:33:09.996Z,98895.31
2023-03-31T13:35:39.338Z,98901.69
2023-03-31T13:38:23.627Z,98895.44
2023-03-31T13:41:06.746Z,98880.88
2023-03-31T13:43:51.459Z,98887.88
2023-03-31T13:46:46.104Z,98881.59
2023-03-31T13:49:31.731Z,98876.41
2023-03-31T13:52:01.152Z,98877.50
2023-03-31T13:55:25.204Z,98877.59
2023-03-31T13:58:35.111Z,98885.13
2023-03-31T14:01:26.806Z,98902.50
2023-03-31T14:04:02.314Z,98889.50
2023-03-31T14:06:50.266Z,98917.81
2023-03-31T14:09:31.388Z,98882.13
2023-03-31T14:12:18.360Z,98871.09
2023-03-31T14:14:45.162Z,98870.72
2023-03-31T14:17:12.302Z,98881.56
2023-03-31T14:20:10.539Z,98883.94
2023-03-31T14:23:06.475Z,98878.28
2023-03-31T14:26:03.819Z,98864.81
2023-03-31T14:29:01.064Z,98852.91
2023-03-31T14:31:45.243Z,98857.97
2023-03-31T14:34:39.953Z,98848.59
2023-03-31T14:37:13.588Z,98858.88
2023-03-31T14:39:43.393Z,98857.97
2023-03-31T14:42:19.018Z,98855.53
2023-03-31T14:44:48.562Z,98850.81
2023-03-31T14:47:20.759Z,98854.66
2023-03-31T14:49:47.924Z,98847.25
2023-03-31T14:52:19.142Z,98851.44
2023-03-31T14:54:47.681Z,98845.06
2023-03-31T14:57:20.505Z,98842.16
2023-03-31T14:59:52.710Z,98856.44
2023-03-31T15:02:32.697Z,98867.50
2023-03-31T15:05:03.175Z,98858.97
2023-03-31T15:07:30.386Z,98855.25
2023-03-31T15:09:57.310Z,98878.59
2023-03-31T15:12:25.014Z,98863.69
2023-03-31T15:14:57.019Z,98861.59
2023-03-31T15:17:29.455Z,98859.13
2023-03-31T15:19:58.952Z,98843.91
2023-03-31T15:22:28.736Z,98849.88
2023-03-31T15:24:56.066Z,98859.63
2023-03-31T15:27:39.251Z,98859.25
2023-03-31T15:30:08.936Z,98847.75
2023-03-31T15:32:38.996Z,98858.16
2023-03-31T15:35:20.926Z,98862.09
2023-03-31T15:37:51.033Z,98855.56
2023-03-31T15:40:21.015Z,98853.22
2023-03-31T15:43:01.605Z,98860.34
2023-03-31T15:45:53.395Z,98863.06
2023-03-31T15:48:23.106Z,98867.13
2023-03-31T15:50:50.420Z,98865.22
2023-03-31T15:53:28.565Z,98860.63
2023-03-31T15:56:02.555Z,98860.59
2023-03-31T15:58:53.494Z,98861.13
2023-03-31T16:01:20.860Z,98844.56
2023-03-31T16:03:47.822Z,98841.19
2023-03-31T16:06:39.492Z,98836.22
2023-03-31T16:09:17.630Z,98843.38
2023-03-31T16:11:50.489Z,98846.59
2023-03-31T16:14:29.545Z,98840.38
2023-03-31T16:17:06.652Z,98845.28
2023-03-31T16:19:43.445Z,98852.00
2023-03-31T16:22:16.985Z,98849.53
2023-03-31T16:24:44.198Z,98853.97
2023-03-31T16:27:11.062Z,98845.41
2023-03-31T16:29:38.551Z,98841.06
2023-03-31T16:32:12.206Z,98847.06
2023-03-31T16:34:55.784Z,98851.53
2023-03-31T16:37:23.232Z,98846.78
2023-03-31T16:39:50.433Z,98848.59
2023-03-31T16:42:17.470Z,98841.84
2023-03-31T16:44:50.000Z,98853.63
2023-03-31T16:47:34.747Z,98851.16
2023-03-31T16:50:06.991Z,98847.66
2023-03-31T16:52:33.612Z,98848.63
2023-03-31T16:55:00.374Z,98855.13
2023-03-31T16:57:27.153Z,98851.16
2023-03-31T16:59:54.466Z,98857.13
2023-03-31T17:02:22.497Z,98850.56
2023-03-31T17:04:49.536Z,98858.53
2023-03-31T17:07:17.365Z,98845.91
2023-03-31T17:09:43.969Z,98852.69
2023-03-31T17:12:10.650Z,98864.34
2023-03-31T17:14:37.575Z,98867.19
2023-03-31T17:17:04.238Z,98863.38
2023-03-31T17:19:31.472Z,98865.47
2023-03-31T17:22:01.870Z,98864.84
2023-03-31T17:24:28.612Z,98870.41
2023-03-31T17:26:55.505Z,98868.22
2023-03-31T17:29:22.286Z,98872.06
2023-03-31T17:31:48.963Z,98868.56
2023-03-31T17:34:16.866Z,98878.41
2023-03-31T17:36:44.421Z,98877.22
2023-03-31T17:39:11.149Z,98877.75
2023-03-31T17:41:38.143Z,98891.88
2023-03-31T17:44:06.987Z,98894.91
2023-03-31T17:46:34.657Z,98895.09
2023-03-31T17:49:01.564Z,98907.03
2023-03-31T17:51:28.822Z,98892.41
2023-03-31T17:53:56.355Z,98896.03
2023-03-31T17:56:23.894Z,98903.63
2023-03-31T17:58:51.095Z,98900.06
2023-03-31T18:01:17.763Z,98901.88
2023-03-31T18:03:46.227Z,98894.78
2023-03-31T18:06:14.626Z,98910.69
2023-03-31T18:08:42.619Z,98911.88
2023-03-31T18:11:10.079Z,98915.34
2023-03-31T18:13:37.233Z,98917.97
2023-03-31T18:16:05.580Z,98916.59
2023-03-31T18:18:32.564Z,98932.50
2023-03-31T18:21:04.472Z,98926.34
2023-03-31T18:23:31.969Z,98928.47
2023-03-31T18:25:58.665Z,98937.84
2023-03-31T18:28:25.709Z,98944.03
2023-03-31T18:30:53.242Z,98935.69
2023-03-31T18:33:20.251Z,98945.44
2023-03-31T18:35:47.126Z,98953.19
2023-03-31T18:38:14.133Z,98944.75
2023-03-31T18:40:47.695Z,98951.34
2023-03-31T18:43:14.630Z,98961.44
2023-03-31T18:45:42.123Z,98956.63
2023-03-31T18:48:08.822Z,98964.31
2023-03-31T18:50:35.928Z,98950.97
2023-03-31T18:53:03.444Z,98955.25
2023-03-31T18:55:30.379Z,98952.44
2023-03-31T18:57:58.017Z,98947.84
2023-03-31T19:00:24.824Z,98938.69
2023-03-31T19:02:52.014Z,98951.41
2023-03-31T19:05:19.344Z,98950.78
2023-03-31T19:07:46.223Z,98960.13
2023-03-31T19:10:13.167Z,98959.66
2023-03-31T19:12:40.063Z,98957.44
2023-03-31T19:15:07.724Z,98954.94
2023-03-31T19:17:34.504Z,98963.00
2023-03-31T19:20:01.409Z,98961.53
2023-03-31T19:22:29.908Z,98955.59
2023-03-31T19:24:56.737Z,98958.84
2023-03-31T19:27:23.878Z,98957.56
2023-03-31T19:29:51.076Z,98963.31
2023-03-31T19:32:18.232Z,98962.03
2023-03-31T19:34:46.249Z,98960.78
2023-03-31T19:37:13.717Z,98960.72
2023-03-31T19:39:41.232Z,98965.13
2023-03-31T19:42:07.887Z,98964.84
2023-03-31T19:44:34.540Z,98967.19
2023-03-31T19:47:01.143Z,98963.56
2023-03-31T19:49:27.891Z,98980.97
2023-03-31T19:51:56.030Z,98968.00
2023-03-31T19:54:22.692Z,98974.25
2023-03-31T19:56:49.773Z,98966.88
2023-03-31T19:59:16.522Z,98967.16
2023-03-31T20:01:43.271Z,98962.78
2023-03-31T20:04:12.105Z,98952.91
2023-03-31T20:06:38.880Z,98947.22
2023-03-31T20:09:09.282Z,98959.34
2023-03-31T20:11:36.446Z,98954.75
2023-03-31T20:14:04.104Z,98954.09
2023-03-31T20:16:31.610Z,98951.75
2023-03-31T20:19:01.824Z,98960.66
2023-03-31T20:21:30.164Z,98958.03
2023-03-31T20:23:57.355Z,98951.66
2023-03-31T20:26:26.478Z,98952.41
2023-03-31T20:28:54.906Z,98954.81
2023-03-31T20:31:30.281Z,98945.06
2023-03-31T20:33:58.006Z,98956.13
2023-03-31T20:36:31.496Z,98961.59
2023-03-31T20:38:59.837Z,98960.53
2023-03-31T20:41:28.997Z,98969.94
2023-03-31T20:43:56.610Z,98969.44
2023-03-31T20:46:23.848Z,98970.44
2023-03-31T20:48:53.188Z,98973.22
2023-03-31T20:51:24.625Z,98968.88
2023-03-31T20:53:53.077Z,98969.19
2023-03-31T20:56:22.466Z,98968.31
2023-03-31T20:58:50.759Z,98971.31
2023-03-31T21:01:18.251Z,98974.81
2023-03-31T21:03:46.192Z,98959.25
2023-03-31T21:06:14.547Z,98965.47
2023-03-31T21:08:45.298Z,98965.16
2023-03-31T21:11:13.269Z,98968.41
2023-03-31T21:13:39.957Z,98973.81
2023-03-31T21:16:06.963Z,98969.69
2023-03-31T21:18:34.812Z,98968.44
2023-03-31T21:21:04.510Z,98976.47
2023-03-31T21:23:31.541Z,98982.34
2023-03-31T21:26:00.398Z,98982.97
2023-03-31T21:28:32.800Z,98981.88
2023-03-31T21:31:11.575Z,98981.31
2023-03-31T21:33:41.643Z,98982.41
2023-03-31T21:36:14.157Z,98975.09
2023-03-31T21:38:41.274Z,98979.72
2023-03-31T21:41:20.568Z,98976.25
2023-03-31T21:43:47.264Z,98959.03
2023-03-31T21:46:19.618Z,98971.13
2023-03-31T21:48:48.736Z,98972.22
2023-03-31T21:51:17.003Z,98975.72
2023-03-31T21:53:43.830Z,98974.34
2023-03-31T21:56:10.515Z,98973.00
2023-03-31T21:58:37.117Z,98970.53
2023-03-31T22:01:04.844Z,98973.22
2023-03-31T22:03:34.265Z,98975.91
2023-03-31T22:06:03.468Z,98969.72
2023-03-31T22:08:31.545Z,98970.53
2023-03-31T22:11:00.095Z,98982.06
2023-03-31T22:13:28.163Z,98980.47
2023-03-31T22:15:56.171Z,98993.66
2023-03-31T22:18:22.979Z,98989.34
2023-03-31T22:20:50.759Z,98986.38
2023-03-31T22:23:17.782Z,98989.34
2023-03-31T22:25:44.516Z,98987.16
2023-03-31T22:28:12.589Z,98991.22
2023-03-31T22:30:39.392Z,98992.53
2023-03-31T22:33:06.219Z,98988.25
2023-03-31T22:35:33.525Z,98989.38
2023-03-31T22:38:01.596Z,98983.97
2023-03-31T22:40:29.306Z,98989.88
2023-03-31T22:42:58.273Z,98988.84
2023-03-31T22:45:25.391Z,98991.81
2023-03-31T22:47:52.175Z,98998.22
2023-03-31T22:50:18.864Z,98992.56
2023-03-31T22:52:45.952Z,99003.34
2023-03-31T22:55:12.682Z,99000.66
2023-03-31T22:57:39.503Z,99003.88
2023-03-31T23:00:06.870Z,99006.25
2023-03-31T23:02:33.520Z,99002.50
2023-03-31T23:05:00.178Z,99001.72
2023-03-31T23:07:27.978Z,99002.75
2023-03-31T23:09:54.576Z,99013.50
2023-03-31T23:12:21.185Z,99010.28
2023-03-31T23:14:47.765Z,99009.75
2023-03-31T23:17:14.416Z,99013.78
2023-03-31T23:19:41.724Z,99014.59
2023-03-31T23:22:08.578Z,99014.56
2023-03-31T23:24:36.178Z,99015.09
2023-03-31T23:27:02.741Z,99012.44
2023-03-31T23:29:30.666Z,99004.63
2023-03-31T23:31:57.618Z,99005.69
2023-03-31T23:34:24.399Z,99004.31
2023-03-31T23:36:52.625Z,99012.09
2023-03-31T23:39:19.282Z,99002.94
2023-03-31T23:41:46.416Z,98997.81
2023-03-31T23:44:13.235Z,99002.91
2023-03-31T23:46:42.006Z,99003.97
2023-03-31T23:49:09.224Z,99000.50
2023-03-31T23:51:36.283Z,99002.19
2023-03-31T23:54:02.986Z,98997.38
2023-03-31T23:56:30.600Z,99000.50
2023-03-31T23:58:57.516Z,99000.28
